sensor_id;sensor_type;location;lat;lon;timestamp;temperature;humidity
25250;DHT22;13201;51.148;13.738;2024-01-11T00:01:59;-5.70;99.90
25250;DHT22;13201;51.148;13.738;2024-01-11T00:04:24;-5.60;99.90
25250;DHT22;13201;51.148;13.738;2024-01-11T00:06:51;-5.50;99.90
25250;DHT22;13201;51.148;13.738;2024-01-11T00:09:16;-5.70;99.90
25250;DHT22;13201;51.148;13.738;2024-01-11T00:11:42;-5.60;99.90
25250;DHT22;13201;51.148;13.738;2024-01-11T00:14:08;-5.70;99.90
25250;DHT22;13201;51.148;13.738;2024-01-11T00:16:33;-5.70;99.90
25250;DHT22;13201;51.148;13.738;2024-01-11T00:19:00;-5.70;99.90
25250;DHT22;13201;51.148;13.738;2024-01-11T00:21:26;-5.80;99.90
25250;DHT22;13201;51.148;13.738;2024-01-11T00:23:51;-5.70;99.90
25250;DHT22;13201;51.148;13.738;2024-01-11T00:26:17;-5.60;99.90
25250;DHT22;13201;51.148;13.738;2024-01-11T00:28:42;-5.70;99.90
25250;DHT22;13201;51.148;13.738;2024-01-11T00:31:08;-5.60;99.90
25250;DHT22;13201;51.148;13.738;2024-01-11T00:33:34;-5.60;99.90
25250;DHT22;13201;51.148;13.738;2024-01-11T00:35:59;-5.80;99.90
25250;DHT22;13201;51.148;13.738;2024-01-11T00:38:25;-5.80;99.90
25250;DHT22;13201;51.148;13.738;2024-01-11T00:40:51;-5.80;99.90
25250;DHT22;13201;51.148;13.738;2024-01-11T00:43:16;-5.70;99.90
25250;DHT22;13201;51.148;13.738;2024-01-11T00:48:08;-5.90;99.90
25250;DHT22;13201;51.148;13.738;2024-01-11T00:50:34;-6.00;99.90
25250;DHT22;13201;51.148;13.738;2024-01-11T00:53:00;-5.90;99.90
25250;DHT22;13201;51.148;13.738;2024-01-11T00:55:26;-6.00;99.90
25250;DHT22;13201;51.148;13.738;2024-01-11T00:57:52;-6.00;99.90
25250;DHT22;13201;51.148;13.738;2024-01-11T01:00:18;-6.00;99.90
25250;DHT22;13201;51.148;13.738;2024-01-11T01:28:05;-7.30;99.90
25250;DHT22;13201;51.148;13.738;2024-01-11T01:30:31;-7.30;99.90
25250;DHT22;13201;51.148;13.738;2024-01-11T01:32:57;-7.30;99.90
25250;DHT22;13201;51.148;13.738;2024-01-11T01:35:22;-7.20;99.90
25250;DHT22;13201;51.148;13.738;2024-01-11T01:37:48;-7.00;99.90
25250;DHT22;13201;51.148;13.738;2024-01-11T01:40:14;-6.80;99.90
25250;DHT22;13201;51.148;13.738;2024-01-11T01:42:43;-6.70;99.90
25250;DHT22;13201;51.148;13.738;2024-01-11T01:45:09;-6.60;99.90
25250;DHT22;13201;51.148;13.738;2024-01-11T01:47:35;-6.60;99.90
25250;DHT22;13201;51.148;13.738;2024-01-11T01:50:02;-6.60;99.90
25250;DHT22;13201;51.148;13.738;2024-01-11T01:52:29;-6.50;99.90
25250;DHT22;13201;51.148;13.738;2024-01-11T01:54:54;-6.40;99.90
25250;DHT22;13201;51.148;13.738;2024-01-11T01:57:21;-6.40;99.90
25250;DHT22;13201;51.148;13.738;2024-01-11T01:59:50;-6.30;99.90
25250;DHT22;13201;51.148;13.738;2024-01-11T02:02:19;-6.30;99.90
25250;DHT22;13201;51.148;13.738;2024-01-11T02:04:44;-6.30;99.90
25250;DHT22;13201;51.148;13.738;2024-01-11T02:07:11;-6.20;99.90
25250;DHT22;13201;51.148;13.738;2024-01-11T02:09:37;-6.20;99.90
25250;DHT22;13201;51.148;13.738;2024-01-11T02:12:03;-6.30;99.90
25250;DHT22;13201;51.148;13.738;2024-01-11T02:14:30;-6.20;99.90
25250;DHT22;13201;51.148;13.738;2024-01-11T02:16:55;-6.20;99.90
25250;DHT22;13201;51.148;13.738;2024-01-11T02:19:22;-6.40;99.90
25250;DHT22;13201;51.148;13.738;2024-01-11T02:21:50;-6.20;99.90
25250;DHT22;13201;51.148;13.738;2024-01-11T02:24:18;-6.20;99.90
25250;DHT22;13201;51.148;13.738;2024-01-11T02:27:01;-6.10;99.90
25250;DHT22;13201;51.148;13.738;2024-01-11T02:29:28;-6.10;99.90
25250;DHT22;13201;51.148;13.738;2024-01-11T02:31:55;-6.20;99.90
25250;DHT22;13201;51.148;13.738;2024-01-11T02:34:22;-6.20;99.90
25250;DHT22;13201;51.148;13.738;2024-01-11T02:36:49;-6.30;99.90
25250;DHT22;13201;51.148;13.738;2024-01-11T02:39:16;-6.30;99.90
25250;DHT22;13201;51.148;13.738;2024-01-11T02:41:43;-6.30;99.90
25250;DHT22;13201;51.148;13.738;2024-01-11T02:44:09;-6.30;99.90
25250;DHT22;13201;51.148;13.738;2024-01-11T02:46:35;-6.30;99.90
25250;DHT22;13201;51.148;13.738;2024-01-11T02:49:00;-6.30;99.90
25250;DHT22;13201;51.148;13.738;2024-01-11T02:51:26;-6.30;99.90
25250;DHT22;13201;51.148;13.738;2024-01-11T02:53:52;-6.20;99.90
25250;DHT22;13201;51.148;13.738;2024-01-11T02:56:17;-6.30;99.90
25250;DHT22;13201;51.148;13.738;2024-01-11T02:58:43;-6.20;99.90
25250;DHT22;13201;51.148;13.738;2024-01-11T03:01:09;-6.40;99.90
25250;DHT22;13201;51.148;13.738;2024-01-11T03:03:34;-6.40;99.90
25250;DHT22;13201;51.148;13.738;2024-01-11T03:06:01;-6.40;99.90
25250;DHT22;13201;51.148;13.738;2024-01-11T03:08:26;-6.50;99.90
25250;DHT22;13201;51.148;13.738;2024-01-11T03:10:52;-6.40;99.90
25250;DHT22;13201;51.148;13.738;2024-01-11T03:13:18;-6.40;99.90
25250;DHT22;13201;51.148;13.738;2024-01-11T03:15:44;-6.60;99.90
25250;DHT22;13201;51.148;13.738;2024-01-11T03:18:09;-6.50;99.90
25250;DHT22;13201;51.148;13.738;2024-01-11T03:20:35;-6.50;99.90
25250;DHT22;13201;51.148;13.738;2024-01-11T03:23:01;-6.50;99.90
25250;DHT22;13201;51.148;13.738;2024-01-11T03:25:27;-6.40;99.90
25250;DHT22;13201;51.148;13.738;2024-01-11T03:27:52;-6.70;99.90
25250;DHT22;13201;51.148;13.738;2024-01-11T03:30:18;-6.70;99.90
25250;DHT22;13201;51.148;13.738;2024-01-11T03:32:44;-6.60;99.90
25250;DHT22;13201;51.148;13.738;2024-01-11T03:35:10;-6.60;99.90
25250;DHT22;13201;51.148;13.738;2024-01-11T03:37:35;-6.70;99.90
25250;DHT22;13201;51.148;13.738;2024-01-11T03:40:02;-6.60;99.90
25250;DHT22;13201;51.148;13.738;2024-01-11T03:42:29;-6.70;99.90
25250;DHT22;13201;51.148;13.738;2024-01-11T03:44:54;-6.60;99.90
25250;DHT22;13201;51.148;13.738;2024-01-11T03:47:21;-6.60;99.90
25250;DHT22;13201;51.148;13.738;2024-01-11T03:49:46;-6.50;99.90
25250;DHT22;13201;51.148;13.738;2024-01-11T03:52:12;-6.50;99.90
25250;DHT22;13201;51.148;13.738;2024-01-11T03:54:38;-6.40;99.90
25250;DHT22;13201;51.148;13.738;2024-01-11T03:57:04;-6.70;99.90
25250;DHT22;13201;51.148;13.738;2024-01-11T03:59:29;-6.80;99.90
25250;DHT22;13201;51.148;13.738;2024-01-11T04:01:57;-6.80;99.90
25250;DHT22;13201;51.148;13.738;2024-01-11T04:04:23;-6.70;99.90
25250;DHT22;13201;51.148;13.738;2024-01-11T04:06:50;-6.50;99.90
25250;DHT22;13201;51.148;13.738;2024-01-11T04:09:17;-6.30;99.90
25250;DHT22;13201;51.148;13.738;2024-01-11T04:11:42;-6.30;99.90
25250;DHT22;13201;51.148;13.738;2024-01-11T04:14:08;-6.20;99.90
25250;DHT22;13201;51.148;13.738;2024-01-11T04:16:33;-6.20;99.90
25250;DHT22;13201;51.148;13.738;2024-01-11T04:18:59;-6.20;99.90
25250;DHT22;13201;51.148;13.738;2024-01-11T04:21:27;-6.20;99.90
25250;DHT22;13201;51.148;13.738;2024-01-11T04:23:56;-6.10;99.90
25250;DHT22;13201;51.148;13.738;2024-01-11T04:26:23;-6.20;99.90
25250;DHT22;13201;51.148;13.738;2024-01-11T04:28:49;-6.20;99.90
25250;DHT22;13201;51.148;13.738;2024-01-11T04:31:15;-6.40;99.90
25250;DHT22;13201;51.148;13.738;2024-01-11T04:33:44;-6.20;99.90
25250;DHT22;13201;51.148;13.738;2024-01-11T04:36:10;-6.30;99.90
25250;DHT22;13201;51.148;13.738;2024-01-11T04:38:36;-6.50;99.90
25250;DHT22;13201;51.148;13.738;2024-01-11T04:41:08;-6.40;99.90
25250;DHT22;13201;51.148;13.738;2024-01-11T04:43:37;-6.30;99.90
25250;DHT22;13201;51.148;13.738;2024-01-11T04:46:04;-6.40;99.90
25250;DHT22;13201;51.148;13.738;2024-01-11T04:48:37;-6.40;99.90
25250;DHT22;13201;51.148;13.738;2024-01-11T04:51:03;-6.30;99.90
25250;DHT22;13201;51.148;13.738;2024-01-11T04:53:29;-6.30;99.90
25250;DHT22;13201;51.148;13.738;2024-01-11T04:55:54;-6.20;99.90
25250;DHT22;13201;51.148;13.738;2024-01-11T04:58:20;-6.20;99.90
25250;DHT22;13201;51.148;13.738;2024-01-11T05:00:46;-6.20;99.90
25250;DHT22;13201;51.148;13.738;2024-01-11T05:03:11;-6.30;99.90
25250;DHT22;13201;51.148;13.738;2024-01-11T05:05:37;-6.40;99.90
25250;DHT22;13201;51.148;13.738;2024-01-11T05:08:03;-6.50;99.90
25250;DHT22;13201;51.148;13.738;2024-01-11T05:10:28;-6.60;99.90
25250;DHT22;13201;51.148;13.738;2024-01-11T05:12:54;-6.60;99.90
25250;DHT22;13201;51.148;13.738;2024-01-11T05:15:20;-6.50;99.90
25250;DHT22;13201;51.148;13.738;2024-01-11T05:17:45;-6.70;99.90
25250;DHT22;13201;51.148;13.738;2024-01-11T05:20:11;-6.50;99.90
25250;DHT22;13201;51.148;13.738;2024-01-11T05:22:37;-6.40;99.90
25250;DHT22;13201;51.148;13.738;2024-01-11T05:25:02;-6.40;99.90
25250;DHT22;13201;51.148;13.738;2024-01-11T05:27:28;-6.40;99.90
25250;DHT22;13201;51.148;13.738;2024-01-11T05:29:54;-6.30;99.90
25250;DHT22;13201;51.148;13.738;2024-01-11T05:32:20;-6.40;99.90
25250;DHT22;13201;51.148;13.738;2024-01-11T05:34:45;-6.40;99.90
25250;DHT22;13201;51.148;13.738;2024-01-11T05:37:11;-6.40;99.90
25250;DHT22;13201;51.148;13.738;2024-01-11T05:39:36;-6.40;99.90
25250;DHT22;13201;51.148;13.738;2024-01-11T05:42:02;-6.40;99.90
25250;DHT22;13201;51.148;13.738;2024-01-11T05:44:28;-6.40;99.90
25250;DHT22;13201;51.148;13.738;2024-01-11T05:46:54;-6.40;99.90
25250;DHT22;13201;51.148;13.738;2024-01-11T05:49:20;-6.40;99.90
25250;DHT22;13201;51.148;13.738;2024-01-11T05:51:46;-6.40;99.90
25250;DHT22;13201;51.148;13.738;2024-01-11T05:54:11;-6.40;99.90
25250;DHT22;13201;51.148;13.738;2024-01-11T05:56:37;-6.40;99.90
25250;DHT22;13201;51.148;13.738;2024-01-11T05:59:02;-6.40;99.90
25250;DHT22;13201;51.148;13.738;2024-01-11T06:01:28;-6.40;99.90
25250;DHT22;13201;51.148;13.738;2024-01-11T06:03:54;-6.40;99.90
25250;DHT22;13201;51.148;13.738;2024-01-11T06:06:20;-6.40;99.90
25250;DHT22;13201;51.148;13.738;2024-01-11T06:08:46;-6.40;99.90
25250;DHT22;13201;51.148;13.738;2024-01-11T06:11:12;-6.40;99.90
25250;DHT22;13201;51.148;13.738;2024-01-11T06:13:40;-6.40;99.90
25250;DHT22;13201;51.148;13.738;2024-01-11T06:16:06;-6.40;99.90
25250;DHT22;13201;51.148;13.738;2024-01-11T06:18:32;-6.40;99.90
25250;DHT22;13201;51.148;13.738;2024-01-11T06:20:58;-6.50;99.90
25250;DHT22;13201;51.148;13.738;2024-01-11T06:23:25;-6.60;99.90
25250;DHT22;13201;51.148;13.738;2024-01-11T06:25:51;-6.50;99.90
25250;DHT22;13201;51.148;13.738;2024-01-11T06:28:16;-6.50;99.90
25250;DHT22;13201;51.148;13.738;2024-01-11T06:30:42;-6.60;99.90
25250;DHT22;13201;51.148;13.738;2024-01-11T06:33:08;-6.70;99.90
25250;DHT22;13201;51.148;13.738;2024-01-11T06:35:34;-6.50;99.90
25250;DHT22;13201;51.148;13.738;2024-01-11T06:38:00;-6.40;99.90
25250;DHT22;13201;51.148;13.738;2024-01-11T06:40:26;-6.50;99.90
25250;DHT22;13201;51.148;13.738;2024-01-11T06:42:51;-6.50;99.90
25250;DHT22;13201;51.148;13.738;2024-01-11T06:45:17;-6.60;99.90
25250;DHT22;13201;51.148;13.738;2024-01-11T06:47:44;-6.60;99.90
25250;DHT22;13201;51.148;13.738;2024-01-11T06:50:12;-6.60;99.90
25250;DHT22;13201;51.148;13.738;2024-01-11T06:52:38;-6.70;99.90
25250;DHT22;13201;51.148;13.738;2024-01-11T06:55:04;-6.70;99.90
25250;DHT22;13201;51.148;13.738;2024-01-11T06:57:30;-6.70;99.90
25250;DHT22;13201;51.148;13.738;2024-01-11T06:59:56;-6.60;99.90
25250;DHT22;13201;51.148;13.738;2024-01-11T07:02:22;-6.50;99.90
25250;DHT22;13201;51.148;13.738;2024-01-11T07:04:47;-6.30;99.90
25250;DHT22;13201;51.148;13.738;2024-01-11T07:07:13;-6.20;99.90
25250;DHT22;13201;51.148;13.738;2024-01-11T07:09:39;-6.10;99.90
25250;DHT22;13201;51.148;13.738;2024-01-11T07:12:05;-6.10;99.90
25250;DHT22;13201;51.148;13.738;2024-01-11T07:14:31;-6.10;99.90
25250;DHT22;13201;51.148;13.738;2024-01-11T07:16:57;-6.20;99.90
25250;DHT22;13201;51.148;13.738;2024-01-11T07:19:23;-6.10;99.90
25250;DHT22;13201;51.148;13.738;2024-01-11T07:21:48;-6.10;99.90
25250;DHT22;13201;51.148;13.738;2024-01-11T07:24:14;-5.90;99.90
25250;DHT22;13201;51.148;13.738;2024-01-11T07:26:40;-5.90;99.90
25250;DHT22;13201;51.148;13.738;2024-01-11T07:29:06;-5.70;99.90
25250;DHT22;13201;51.148;13.738;2024-01-11T07:31:32;-5.70;99.90
25250;DHT22;13201;51.148;13.738;2024-01-11T07:33:58;-5.60;99.90
25250;DHT22;13201;51.148;13.738;2024-01-11T07:36:24;-5.60;99.90
25250;DHT22;13201;51.148;13.738;2024-01-11T07:38:50;-5.50;99.90
25250;DHT22;13201;51.148;13.738;2024-01-11T07:41:16;-5.40;99.90
25250;DHT22;13201;51.148;13.738;2024-01-11T07:43:42;-5.50;99.90
25250;DHT22;13201;51.148;13.738;2024-01-11T07:46:08;-5.40;99.90
25250;DHT22;13201;51.148;13.738;2024-01-11T07:48:35;-5.40;99.90
25250;DHT22;13201;51.148;13.738;2024-01-11T07:51:00;-5.40;99.90
25250;DHT22;13201;51.148;13.738;2024-01-11T07:53:26;-5.30;99.90
25250;DHT22;13201;51.148;13.738;2024-01-11T07:55:52;-5.30;99.90
25250;DHT22;13201;51.148;13.738;2024-01-11T07:58:18;-5.40;99.90
25250;DHT22;13201;51.148;13.738;2024-01-11T08:00:46;-5.40;99.90
25250;DHT22;13201;51.148;13.738;2024-01-11T08:03:12;-5.30;99.90
25250;DHT22;13201;51.148;13.738;2024-01-11T08:05:38;-5.30;99.90
25250;DHT22;13201;51.148;13.738;2024-01-11T08:08:04;-5.20;99.90
25250;DHT22;13201;51.148;13.738;2024-01-11T08:10:30;-5.10;99.90
25250;DHT22;13201;51.148;13.738;2024-01-11T08:12:56;-5.00;99.90
25250;DHT22;13201;51.148;13.738;2024-01-11T08:15:22;-4.90;99.90
25250;DHT22;13201;51.148;13.738;2024-01-11T08:17:48;-4.80;99.90
25250;DHT22;13201;51.148;13.738;2024-01-11T08:20:14;-4.80;99.90
25250;DHT22;13201;51.148;13.738;2024-01-11T08:22:41;-4.70;99.90
25250;DHT22;13201;51.148;13.738;2024-01-11T08:25:09;-4.70;99.90
25250;DHT22;13201;51.148;13.738;2024-01-11T08:27:34;-4.50;99.90
25250;DHT22;13201;51.148;13.738;2024-01-11T08:30:00;-4.60;99.90
25250;DHT22;13201;51.148;13.738;2024-01-11T08:32:26;-4.50;99.90
25250;DHT22;13201;51.148;13.738;2024-01-11T08:34:52;-4.50;99.90
25250;DHT22;13201;51.148;13.738;2024-01-11T08:37:17;-4.40;99.90
25250;DHT22;13201;51.148;13.738;2024-01-11T08:39:43;-4.50;99.90
25250;DHT22;13201;51.148;13.738;2024-01-11T08:42:09;-4.60;99.90
25250;DHT22;13201;51.148;13.738;2024-01-11T08:44:34;-4.50;99.90
25250;DHT22;13201;51.148;13.738;2024-01-11T08:47:00;-4.30;99.90
25250;DHT22;13201;51.148;13.738;2024-01-11T08:49:27;-4.40;99.90
25250;DHT22;13201;51.148;13.738;2024-01-11T08:51:53;-4.40;99.90
25250;DHT22;13201;51.148;13.738;2024-01-11T08:54:18;-4.20;99.90
25250;DHT22;13201;51.148;13.738;2024-01-11T08:56:46;-4.20;99.90
25250;DHT22;13201;51.148;13.738;2024-01-11T08:59:12;-4.30;99.90
25250;DHT22;13201;51.148;13.738;2024-01-11T09:01:38;-4.20;99.90
25250;DHT22;13201;51.148;13.738;2024-01-11T09:04:04;-4.20;99.90
25250;DHT22;13201;51.148;13.738;2024-01-11T09:06:31;-4.20;99.90
25250;DHT22;13201;51.148;13.738;2024-01-11T09:08:57;-4.10;99.90
25250;DHT22;13201;51.148;13.738;2024-01-11T09:11:23;-4.10;99.90
25250;DHT22;13201;51.148;13.738;2024-01-11T09:13:48;-4.00;99.90
25250;DHT22;13201;51.148;13.738;2024-01-11T09:16:17;-4.00;99.90
25250;DHT22;13201;51.148;13.738;2024-01-11T09:18:43;-4.00;99.90
25250;DHT22;13201;51.148;13.738;2024-01-11T09:21:10;-3.80;99.90
25250;DHT22;13201;51.148;13.738;2024-01-11T09:23:36;-3.60;99.90
25250;DHT22;13201;51.148;13.738;2024-01-11T09:26:02;-3.40;99.90
25250;DHT22;13201;51.148;13.738;2024-01-11T09:28:27;-3.40;99.90
25250;DHT22;13201;51.148;13.738;2024-01-11T09:30:54;-3.40;99.90
25250;DHT22;13201;51.148;13.738;2024-01-11T09:33:25;-3.30;99.90
25250;DHT22;13201;51.148;13.738;2024-01-11T09:35:51;-3.30;99.90
25250;DHT22;13201;51.148;13.738;2024-01-11T09:38:17;-3.20;99.90
25250;DHT22;13201;51.148;13.738;2024-01-11T09:40:43;-3.10;99.90
25250;DHT22;13201;51.148;13.738;2024-01-11T09:43:09;-3.30;99.90
25250;DHT22;13201;51.148;13.738;2024-01-11T09:45:36;-3.10;99.90
25250;DHT22;13201;51.148;13.738;2024-01-11T09:48:04;-3.10;99.90
25250;DHT22;13201;51.148;13.738;2024-01-11T09:50:30;-3.00;99.90
25250;DHT22;13201;51.148;13.738;2024-01-11T09:52:55;-3.00;99.90
25250;DHT22;13201;51.148;13.738;2024-01-11T09:55:21;-3.00;99.90
25250;DHT22;13201;51.148;13.738;2024-01-11T09:57:48;-2.90;99.90
25250;DHT22;13201;51.148;13.738;2024-01-11T10:00:19;-2.80;99.90
25250;DHT22;13201;51.148;13.738;2024-01-11T10:02:46;-3.00;99.90
25250;DHT22;13201;51.148;13.738;2024-01-11T10:05:12;-2.80;99.90
25250;DHT22;13201;51.148;13.738;2024-01-11T10:07:39;-2.70;99.90
25250;DHT22;13201;51.148;13.738;2024-01-11T10:10:06;-2.70;99.90
25250;DHT22;13201;51.148;13.738;2024-01-11T10:12:38;-2.80;99.90
25250;DHT22;13201;51.148;13.738;2024-01-11T10:15:08;-2.80;99.90
25250;DHT22;13201;51.148;13.738;2024-01-11T10:17:44;-2.90;99.90
25250;DHT22;13201;51.148;13.738;2024-01-11T10:20:14;-3.00;99.90
25250;DHT22;13201;51.148;13.738;2024-01-11T10:22:40;-3.10;99.90
25250;DHT22;13201;51.148;13.738;2024-01-11T10:25:14;-2.90;99.90
25250;DHT22;13201;51.148;13.738;2024-01-11T10:27:42;-2.80;99.90
25250;DHT22;13201;51.148;13.738;2024-01-11T10:30:12;-2.80;99.90
25250;DHT22;13201;51.148;13.738;2024-01-11T10:32:39;-2.80;99.90
25250;DHT22;13201;51.148;13.738;2024-01-11T10:35:05;-2.60;99.90
25250;DHT22;13201;51.148;13.738;2024-01-11T10:37:32;-2.70;99.90
25250;DHT22;13201;51.148;13.738;2024-01-11T10:40:04;-2.60;99.90
25250;DHT22;13201;51.148;13.738;2024-01-11T10:42:40;-2.40;99.90
25250;DHT22;13201;51.148;13.738;2024-01-11T10:45:16;-2.30;99.90
25250;DHT22;13201;51.148;13.738;2024-01-11T10:47:50;-2.30;99.90
25250;DHT22;13201;51.148;13.738;2024-01-11T10:50:18;-2.20;99.90
25250;DHT22;13201;51.148;13.738;2024-01-11T10:55:33;-2.20;99.90
25250;DHT22;13201;51.148;13.738;2024-01-11T10:58:00;-2.20;99.90
25250;DHT22;13201;51.148;13.738;2024-01-11T11:00:28;-2.20;99.90
25250;DHT22;13201;51.148;13.738;2024-01-11T11:02:55;-2.30;99.90
25250;DHT22;13201;51.148;13.738;2024-01-11T11:05:21;-2.40;99.90
25250;DHT22;13201;51.148;13.738;2024-01-11T11:07:50;-2.40;99.90
25250;DHT22;13201;51.148;13.738;2024-01-11T11:10:18;-2.20;99.90
25250;DHT22;13201;51.148;13.738;2024-01-11T11:12:45;-2.00;99.90
25250;DHT22;13201;51.148;13.738;2024-01-11T11:15:12;-2.00;99.90
25250;DHT22;13201;51.148;13.738;2024-01-11T11:17:42;-1.90;99.90
25250;DHT22;13201;51.148;13.738;2024-01-11T11:20:12;-1.60;99.90
25250;DHT22;13201;51.148;13.738;2024-01-11T11:22:40;-1.30;99.90
25250;DHT22;13201;51.148;13.738;2024-01-11T11:25:09;-1.40;99.90
25250;DHT22;13201;51.148;13.738;2024-01-11T11:27:38;-1.00;99.90
25250;DHT22;13201;51.148;13.738;2024-01-11T11:30:04;-1.10;99.90
25250;DHT22;13201;51.148;13.738;2024-01-11T11:32:38;-0.80;99.90
25250;DHT22;13201;51.148;13.738;2024-01-11T11:35:05;-0.70;99.90
25250;DHT22;13201;51.148;13.738;2024-01-11T11:37:31;-0.60;99.90
25250;DHT22;13201;51.148;13.738;2024-01-11T11:39:59;-0.70;99.90
25250;DHT22;13201;51.148;13.738;2024-01-11T11:42:25;-0.40;99.90
25250;DHT22;13201;51.148;13.738;2024-01-11T11:44:51;-0.30;99.90
25250;DHT22;13201;51.148;13.738;2024-01-11T11:47:23;-0.20;99.90
25250;DHT22;13201;51.148;13.738;2024-01-11T11:52:32;-0.10;99.90
25250;DHT22;13201;51.148;13.738;2024-01-11T11:55:00;0.00;99.90
25250;DHT22;13201;51.148;13.738;2024-01-11T11:57:27;-0.10;99.90
25250;DHT22;13201;51.148;13.738;2024-01-11T11:59:57;-0.10;99.90
25250;DHT22;13201;51.148;13.738;2024-01-11T12:02:25;-0.10;99.90
25250;DHT22;13201;51.148;13.738;2024-01-11T12:04:51;0.00;99.90
25250;DHT22;13201;51.148;13.738;2024-01-11T12:07:17;-0.10;99.90
25250;DHT22;13201;51.148;13.738;2024-01-11T12:09:43;-0.20;99.90
25250;DHT22;13201;51.148;13.738;2024-01-11T12:12:09;-0.10;99.90
25250;DHT22;13201;51.148;13.738;2024-01-11T12:14:35;-0.10;99.90
25250;DHT22;13201;51.148;13.738;2024-01-11T12:17:01;0.00;99.90
25250;DHT22;13201;51.148;13.738;2024-01-11T12:19:28;-0.10;99.90
25250;DHT22;13201;51.148;13.738;2024-01-11T12:21:54;0.10;99.90
25250;DHT22;13201;51.148;13.738;2024-01-11T12:24:20;0.30;99.90
25250;DHT22;13201;51.148;13.738;2024-01-11T12:26:49;0.00;99.90
25250;DHT22;13201;51.148;13.738;2024-01-11T12:29:17;0.00;99.90
25250;DHT22;13201;51.148;13.738;2024-01-11T12:31:44;0.10;99.90
25250;DHT22;13201;51.148;13.738;2024-01-11T12:34:11;0.20;99.90
25250;DHT22;13201;51.148;13.738;2024-01-11T12:36:38;0.40;99.90
25250;DHT22;13201;51.148;13.738;2024-01-11T12:39:03;0.30;99.90
25250;DHT22;13201;51.148;13.738;2024-01-11T12:41:34;0.00;99.90
25250;DHT22;13201;51.148;13.738;2024-01-11T12:44:00;0.20;99.90
25250;DHT22;13201;51.148;13.738;2024-01-11T12:46:26;0.20;99.90
25250;DHT22;13201;51.148;13.738;2024-01-11T12:48:52;0.00;99.90
25250;DHT22;13201;51.148;13.738;2024-01-11T12:51:18;0.10;99.90
25250;DHT22;13201;51.148;13.738;2024-01-11T12:53:48;0.10;99.90
25250;DHT22;13201;51.148;13.738;2024-01-11T12:56:16;0.00;99.90
25250;DHT22;13201;51.148;13.738;2024-01-11T12:58:43;0.20;99.90
25250;DHT22;13201;51.148;13.738;2024-01-11T13:01:12;0.40;99.90
25250;DHT22;13201;51.148;13.738;2024-01-11T13:03:43;0.20;99.90
25250;DHT22;13201;51.148;13.738;2024-01-11T13:06:09;0.40;99.90
25250;DHT22;13201;51.148;13.738;2024-01-11T13:08:37;0.30;99.90
25250;DHT22;13201;51.148;13.738;2024-01-11T13:11:05;0.20;99.90
25250;DHT22;13201;51.148;13.738;2024-01-11T13:13:35;0.00;99.90
25250;DHT22;13201;51.148;13.738;2024-01-11T13:16:04;0.10;99.90
25250;DHT22;13201;51.148;13.738;2024-01-11T13:18:36;-0.10;99.90
25250;DHT22;13201;51.148;13.738;2024-01-11T13:21:02;0.00;99.90
25250;DHT22;13201;51.148;13.738;2024-01-11T13:23:28;0.10;99.90
25250;DHT22;13201;51.148;13.738;2024-01-11T13:25:54;-0.10;99.90
25250;DHT22;13201;51.148;13.738;2024-01-11T13:28:19;-0.10;99.90
25250;DHT22;13201;51.148;13.738;2024-01-11T13:30:45;-0.30;99.90
25250;DHT22;13201;51.148;13.738;2024-01-11T13:33:12;-0.30;99.90
25250;DHT22;13201;51.148;13.738;2024-01-11T13:35:40;-0.20;99.90
25250;DHT22;13201;51.148;13.738;2024-01-11T13:38:06;-0.10;99.90
25250;DHT22;13201;51.148;13.738;2024-01-11T13:40:32;-0.10;99.90
25250;DHT22;13201;51.148;13.738;2024-01-11T13:42:58;0.00;99.90
25250;DHT22;13201;51.148;13.738;2024-01-11T13:45:27;0.10;99.90
25250;DHT22;13201;51.148;13.738;2024-01-11T13:47:53;0.00;99.90
25250;DHT22;13201;51.148;13.738;2024-01-11T13:50:20;-0.10;99.90
25250;DHT22;13201;51.148;13.738;2024-01-11T13:52:46;-0.30;99.90
25250;DHT22;13201;51.148;13.738;2024-01-11T13:55:12;-0.30;99.90
25250;DHT22;13201;51.148;13.738;2024-01-11T13:57:38;-0.30;99.90
25250;DHT22;13201;51.148;13.738;2024-01-11T14:00:05;-0.10;99.90
25250;DHT22;13201;51.148;13.738;2024-01-11T14:02:31;-0.10;99.90
25250;DHT22;13201;51.148;13.738;2024-01-11T14:04:57;-0.10;99.90
25250;DHT22;13201;51.148;13.738;2024-01-11T14:07:23;0.10;99.90
25250;DHT22;13201;51.148;13.738;2024-01-11T14:09:50;-0.10;99.90
25250;DHT22;13201;51.148;13.738;2024-01-11T14:12:16;-0.20;99.90
25250;DHT22;13201;51.148;13.738;2024-01-11T14:14:42;-0.20;99.90
25250;DHT22;13201;51.148;13.738;2024-01-11T14:17:09;-0.20;99.90
25250;DHT22;13201;51.148;13.738;2024-01-11T14:19:34;-0.30;99.90
25250;DHT22;13201;51.148;13.738;2024-01-11T14:22:00;-0.30;99.90
25250;DHT22;13201;51.148;13.738;2024-01-11T14:24:26;-0.40;99.90
25250;DHT22;13201;51.148;13.738;2024-01-11T14:26:52;-0.50;99.90
25250;DHT22;13201;51.148;13.738;2024-01-11T14:29:18;-0.50;99.90
25250;DHT22;13201;51.148;13.738;2024-01-11T14:31:43;-0.60;99.90
25250;DHT22;13201;51.148;13.738;2024-01-11T14:34:10;-0.60;99.90
25250;DHT22;13201;51.148;13.738;2024-01-11T14:36:36;-0.60;99.90
25250;DHT22;13201;51.148;13.738;2024-01-11T14:39:03;-0.80;99.90
25250;DHT22;13201;51.148;13.738;2024-01-11T14:41:32;-0.70;99.90
25250;DHT22;13201;51.148;13.738;2024-01-11T14:43:59;-0.60;99.90
25250;DHT22;13201;51.148;13.738;2024-01-11T14:46:26;-0.60;99.90
25250;DHT22;13201;51.148;13.738;2024-01-11T14:48:51;-0.70;99.90
25250;DHT22;13201;51.148;13.738;2024-01-11T14:51:17;-0.70;99.90
25250;DHT22;13201;51.148;13.738;2024-01-11T14:53:43;-0.70;99.90
25250;DHT22;13201;51.148;13.738;2024-01-11T14:56:09;-0.80;99.90
25250;DHT22;13201;51.148;13.738;2024-01-11T14:58:36;-0.80;99.90
25250;DHT22;13201;51.148;13.738;2024-01-11T15:01:02;-0.90;99.90
25250;DHT22;13201;51.148;13.738;2024-01-11T15:03:29;-0.80;99.90
25250;DHT22;13201;51.148;13.738;2024-01-11T15:05:54;-0.90;99.90
25250;DHT22;13201;51.148;13.738;2024-01-11T15:08:20;-0.90;99.90
25250;DHT22;13201;51.148;13.738;2024-01-11T15:10:47;-0.90;99.90
25250;DHT22;13201;51.148;13.738;2024-01-11T15:13:13;-0.90;99.90
25250;DHT22;13201;51.148;13.738;2024-01-11T15:15:39;-1.00;99.90
25250;DHT22;13201;51.148;13.738;2024-01-11T15:18:05;-1.20;99.90
25250;DHT22;13201;51.148;13.738;2024-01-11T15:20:30;-1.20;99.90
25250;DHT22;13201;51.148;13.738;2024-01-11T15:22:56;-1.20;99.90
25250;DHT22;13201;51.148;13.738;2024-01-11T15:25:22;-1.00;99.90
25250;DHT22;13201;51.148;13.738;2024-01-11T15:27:49;-1.20;99.90
25250;DHT22;13201;51.148;13.738;2024-01-11T15:30:15;-1.20;99.90
25250;DHT22;13201;51.148;13.738;2024-01-11T15:32:41;-1.20;99.90
25250;DHT22;13201;51.148;13.738;2024-01-11T15:35:07;-1.00;99.90
25250;DHT22;13201;51.148;13.738;2024-01-11T15:37:35;-1.00;99.90
25250;DHT22;13201;51.148;13.738;2024-01-11T15:40:01;-1.10;99.90
25250;DHT22;13201;51.148;13.738;2024-01-11T15:42:29;-1.10;99.90
25250;DHT22;13201;51.148;13.738;2024-01-11T15:44:55;-1.20;99.90
25250;DHT22;13201;51.148;13.738;2024-01-11T15:47:21;-1.20;99.90